createdAt,value
2018-10-11T00:01:59.692Z,19.70
2018-10-11T00:04:27.782Z,19.50
2018-10-11T00:06:55.875Z,19.50
2018-10-11T00:09:23.979Z,19.90
2018-10-11T00:11:52.066Z,19.50
2018-10-11T00:14:20.177Z,19.70
2018-10-11T00:16:48.266Z,19.60
2018-10-11T00:19:16.475Z,19.40
2018-10-11T00:21:44.592Z,19.30
2018-10-11T00:24:12.680Z,19.10
2018-10-11T00:26:40.789Z,19.20
2018-10-11T00:29:08.860Z,19.10
2018-10-11T00:31:36.928Z,19.10
2018-10-11T00:34:05.071Z,18.90
2018-10-11T00:36:33.162Z,19.00
2018-10-11T00:39:01.228Z,19.00
2018-10-11T00:41:29.295Z,19.00
2018-10-11T00:43:57.359Z,19.00
2018-10-11T00:46:25.484Z,19.70
2018-10-11T00:48:53.552Z,19.20
2018-10-11T00:51:21.700Z,19.10
2018-10-11T00:53:49.784Z,19.20
2018-10-11T00:56:17.855Z,19.20
2018-10-11T00:58:45.927Z,19.40
2018-10-11T01:01:14.003Z,19.10
2018-10-11T01:03:42.103Z,19.30
2018-10-11T01:06:10.511Z,19.20
2018-10-11T01:08:38.692Z,19.30
2018-10-11T01:11:06.792Z,19.90
2018-10-11T01:13:34.869Z,19.20
2018-10-11T01:16:02.971Z,19.20
2018-10-11T01:18:31.066Z,19.20
2018-10-11T01:20:59.148Z,19.20
2018-10-11T01:23:27.251Z,19.40
2018-10-11T01:25:55.743Z,19.10
2018-10-11T01:28:24.079Z,19.10
2018-10-11T01:30:57.736Z,19.40
2018-10-11T01:33:25.923Z,19.20
2018-10-11T01:35:54.068Z,19.40
2018-10-11T01:38:22.180Z,19.30
2018-10-11T01:40:50.304Z,19.40
2018-10-11T01:43:18.415Z,19.50
2018-10-11T01:45:46.510Z,19.50
2018-10-11T01:48:14.614Z,19.60
2018-10-11T01:50:42.688Z,19.30
2018-10-11T01:53:10.785Z,18.90
2018-10-11T01:55:38.883Z,19.10
2018-10-11T01:58:06.995Z,19.00
2018-10-11T02:00:35.097Z,19.20
2018-10-11T02:03:03.192Z,19.20
2018-10-11T02:05:31.267Z,19.20
2018-10-11T02:07:59.619Z,19.30
2018-10-11T02:10:28.601Z,19.40
2018-10-11T02:12:57.761Z,19.50
2018-10-11T02:15:26.797Z,19.90
2018-10-11T02:17:54.951Z,20.00
2018-10-11T02:20:23.032Z,20.20
2018-10-11T02:22:51.136Z,20.10
2018-10-11T02:25:19.265Z,20.20
2018-10-11T02:27:47.379Z,20.40
2018-10-11T02:30:15.505Z,20.40
2018-10-11T02:32:43.694Z,20.50
2018-10-11T02:35:12.400Z,20.50
2018-10-11T02:37:40.840Z,20.90
2018-10-11T02:40:08.982Z,21.10
2018-10-11T02:42:37.091Z,21.30
2018-10-11T02:45:05.636Z,21.50
2018-10-11T02:47:33.743Z,21.80
2018-10-11T02:50:01.820Z,21.80
2018-10-11T02:52:29.947Z,21.90
2018-10-11T02:54:58.071Z,21.90
2018-10-11T02:57:37.807Z,22.00
2018-10-11T03:00:05.884Z,22.10
2018-10-11T03:02:35.228Z,22.40
2018-10-11T03:05:03.311Z,22.60
2018-10-11T03:07:31.497Z,22.80
2018-10-11T03:09:59.641Z,23.00
2018-10-11T03:12:27.721Z,23.10
2018-10-11T03:14:55.847Z,23.20
2018-10-11T03:17:23.952Z,23.30
2018-10-11T03:19:52.072Z,24.10
2018-10-11T03:22:20.171Z,24.10
2018-10-11T03:24:48.307Z,24.00
2018-10-11T03:27:16.404Z,24.40
2018-10-11T03:29:44.503Z,24.50
2018-10-11T03:32:12.611Z,24.70
2018-10-11T03:34:40.712Z,24.80
2018-10-11T03:37:08.822Z,25.10
2018-10-11T03:39:36.920Z,25.40
2018-10-11T03:42:05.068Z,25.60
2018-10-11T03:44:33.158Z,25.60
2018-10-11T03:47:01.275Z,25.50
2018-10-11T03:49:29.375Z,25.40
2018-10-11T03:51:57.467Z,25.60
2018-10-11T03:54:25.763Z,25.90
2018-10-11T03:56:53.871Z,26.30
2018-10-11T03:59:21.976Z,26.10
2018-10-11T04:01:50.086Z,26.00
2018-10-11T04:04:18.202Z,26.20
2018-10-11T04:06:46.318Z,26.50
2018-10-11T04:09:14.447Z,26.70
2018-10-11T04:11:42.551Z,26.80
2018-10-11T04:14:10.679Z,27.00
2018-10-11T04:16:38.810Z,26.90
2018-10-11T04:19:07.248Z,27.00
2018-10-11T04:21:35.342Z,27.30
2018-10-11T04:24:03.456Z,27.60
2018-10-11T04:26:31.583Z,27.80
2018-10-11T04:28:59.697Z,28.00
2018-10-11T04:31:27.812Z,28.10
2018-10-11T04:33:55.979Z,28.30
2018-10-11T04:36:24.088Z,28.00
2018-10-11T04:38:52.199Z,28.00
2018-10-11T04:41:20.327Z,28.20
2018-10-11T04:43:48.531Z,28.10
2018-10-11T04:46:16.655Z,28.10
2018-10-11T04:48:46.204Z,28.10
2018-10-11T04:51:14.340Z,28.10
2018-10-11T04:53:42.538Z,28.30
2018-10-11T04:56:10.579Z,28.30
2018-10-11T04:58:38.708Z,28.30
2018-10-11T05:01:07.031Z,29.10
2018-10-11T05:03:35.155Z,28.40
2018-10-11T05:06:03.285Z,28.50
2018-10-11T05:08:31.403Z,28.30
2018-10-11T05:10:59.531Z,28.10
2018-10-11T05:13:37.111Z,28.10
2018-10-11T05:16:05.208Z,27.80
2018-10-11T05:18:33.480Z,28.00
2018-10-11T05:21:01.620Z,28.00
2018-10-11T05:23:29.737Z,28.00
2018-10-11T05:25:57.899Z,27.80
2018-10-11T05:28:26.036Z,27.60
2018-10-11T05:30:54.157Z,27.60
2018-10-11T05:33:22.279Z,27.70
2018-10-11T05:35:50.387Z,27.40
2018-10-11T05:38:18.556Z,27.00
2018-10-11T05:40:46.668Z,27.10
2018-10-11T05:43:14.879Z,27.20
2018-10-11T05:45:46.008Z,27.20
2018-10-11T05:48:14.171Z,26.70
2018-10-11T05:50:42.299Z,26.60
2018-10-11T05:53:10.466Z,26.30
2018-10-11T05:55:38.588Z,26.20
2018-10-11T05:58:06.776Z,25.90
2018-10-11T06:00:34.895Z,26.00
2018-10-11T06:03:03.654Z,25.40
2018-10-11T06:05:31.950Z,24.70
2018-10-11T06:08:01.042Z,24.50
2018-10-11T06:10:31.071Z,24.20
2018-10-11T06:12:59.235Z,24.00
2018-10-11T06:15:27.415Z,23.70
2018-10-11T06:17:55.681Z,23.50
2018-10-11T06:20:23.720Z,23.10
2018-10-11T06:22:51.807Z,22.30
2018-10-11T06:25:19.954Z,22.00
2018-10-11T06:27:48.083Z,22.00
2018-10-11T06:30:16.276Z,21.80
2018-10-11T06:32:44.843Z,20.30
2018-10-11T06:35:13.721Z,20.10
2018-10-11T06:37:42.470Z,19.60
2018-10-11T06:40:10.774Z,19.40
2018-10-11T06:42:38.907Z,18.00
2018-10-11T06:45:08.778Z,17.60
2018-10-11T06:47:36.872Z,17.70
2018-10-11T06:50:06.461Z,17.10
2018-10-11T06:52:34.453Z,14.70
2018-10-11T06:55:03.337Z,14.00
2018-10-11T06:57:31.511Z,14.90
2018-10-11T06:59:59.891Z,15.00
2018-10-11T07:02:28.050Z,14.80
2018-10-11T07:04:56.260Z,15.00
2018-10-11T07:07:24.515Z,15.10
2018-10-11T07:09:52.518Z,14.70
2018-10-11T07:12:20.620Z,14.80
2018-10-11T07:14:48.941Z,14.60
2018-10-11T07:17:17.246Z,14.70
2018-10-11T07:19:45.739Z,14.30
2018-10-11T07:22:13.836Z,14.20
2018-10-11T07:24:41.960Z,14.00
2018-10-11T07:27:10.048Z,13.70
2018-10-11T07:29:38.259Z,13.50
2018-10-11T07:32:06.352Z,13.10
2018-10-11T07:34:34.559Z,13.30
2018-10-11T07:37:02.588Z,13.50
2018-10-11T07:39:30.698Z,12.30
2018-10-11T07:41:58.780Z,12.20
2018-10-11T07:44:26.931Z,12.10
2018-10-11T07:46:55.167Z,12.60
2018-10-11T07:49:23.373Z,12.40
2018-10-11T07:51:51.704Z,12.20
2018-10-11T07:54:19.975Z,11.60
2018-10-11T07:56:48.168Z,11.00
2018-10-11T07:59:16.258Z,10.60
2018-10-11T08:01:44.453Z,11.30
2018-10-11T08:04:12.731Z,10.60
2018-10-11T08:06:40.837Z,10.00
2018-10-11T08:09:09.203Z,9.20
2018-10-11T08:11:37.646Z,8.90
2018-10-11T08:14:05.880Z,7.70
2018-10-11T08:16:34.950Z,5.90
2018-10-11T08:19:03.474Z,4.10
2018-10-11T08:21:31.477Z,2.70
2018-10-11T08:23:59.600Z,1.50
2018-10-11T08:26:28.120Z,1.00
2018-10-11T08:28:55.843Z,1.30
2018-10-11T08:31:23.957Z,1.00
2018-10-11T08:33:52.076Z,1.00
2018-10-11T08:36:20.135Z,1.00
2018-10-11T08:38:48.236Z,1.00
2018-10-11T08:41:16.344Z,1.00
2018-10-11T08:43:44.470Z,1.00
2018-10-11T08:46:12.625Z,1.00
2018-10-11T08:48:40.757Z,1.00
2018-10-11T08:51:08.960Z,1.00
2018-10-11T08:53:37.183Z,1.00
2018-10-11T08:56:05.369Z,1.00
2018-10-11T08:58:33.612Z,1.00
2018-10-11T09:01:01.718Z,1.00
2018-10-11T09:03:29.870Z,1.00
2018-10-11T09:05:57.940Z,1.00
2018-10-11T09:08:26.155Z,1.00
2018-10-11T09:10:54.347Z,1.00
2018-10-11T09:13:22.433Z,1.00
2018-10-11T09:15:50.560Z,1.00
2018-10-11T09:18:18.652Z,1.00
2018-10-11T09:20:46.751Z,1.00
2018-10-11T09:23:14.889Z,1.00
2018-10-11T09:25:43.038Z,1.00
2018-10-11T09:28:11.160Z,1.00
2018-10-11T09:30:39.266Z,1.00
2018-10-11T09:33:07.405Z,1.00
2018-10-11T09:35:35.516Z,1.00
2018-10-11T09:38:03.724Z,1.00
2018-10-11T09:40:31.860Z,1.00
2018-10-11T09:42:59.994Z,1.00
2018-10-11T09:45:28.077Z,1.00
2018-10-11T09:47:56.196Z,1.00
2018-10-11T09:50:24.296Z,1.00
2018-10-11T09:52:52.429Z,1.00
2018-10-11T09:55:20.540Z,1.00
2018-10-11T09:57:49.246Z,1.00
2018-10-11T10:00:22.930Z,1.00
2018-10-11T10:02:51.394Z,1.00
2018-10-11T10:05:19.561Z,1.00
2018-10-11T10:07:47.686Z,1.00
2018-10-11T10:10:15.834Z,1.00
2018-10-11T10:12:43.957Z,1.00
2018-10-11T10:15:12.061Z,1.00
2018-10-11T10:17:40.188Z,1.00
2018-10-11T10:20:08.301Z,1.00
2018-10-11T10:22:36.447Z,1.00
2018-10-11T10:25:04.561Z,1.00
2018-10-11T10:27:32.724Z,1.00
2018-10-11T10:30:00.809Z,1.00
2018-10-11T10:32:28.943Z,1.00
2018-10-11T10:34:57.042Z,1.00
2018-10-11T10:37:25.272Z,1.00
2018-10-11T10:39:53.413Z,1.00
2018-10-11T10:42:21.548Z,1.00
2018-10-11T10:44:49.653Z,1.00
2018-10-11T10:47:17.747Z,1.00
2018-10-11T10:49:45.863Z,1.00
2018-10-11T10:52:13.978Z,1.00
2018-10-11T10:54:42.086Z,1.00
2018-10-11T10:57:10.215Z,1.00
2018-10-11T10:59:38.336Z,1.00
2018-10-11T11:02:06.567Z,1.00
2018-10-11T11:04:34.681Z,1.00
2018-10-11T11:07:02.800Z,1.00
2018-10-11T11:09:31.082Z,1.00
2018-10-11T11:11:59.177Z,1.00
2018-10-11T11:14:27.326Z,1.00
2018-10-11T11:16:55.391Z,1.00
2018-10-11T11:19:23.487Z,1.00
2018-10-11T11:21:51.601Z,1.00
2018-10-11T11:24:19.686Z,1.00
2018-10-11T11:26:47.864Z,1.00
2018-10-11T11:29:15.940Z,1.00
2018-10-11T11:31:44.025Z,1.00
2018-10-11T11:34:12.119Z,1.00
2018-10-11T11:36:40.289Z,1.00
2018-10-11T11:39:09.060Z,1.00
2018-10-11T11:41:37.220Z,1.00
2018-10-11T11:44:05.363Z,1.00
2018-10-11T11:46:33.480Z,1.00
2018-10-11T11:49:01.618Z,1.00
2018-10-11T11:51:29.719Z,1.00
2018-10-11T11:53:57.856Z,1.00
2018-10-11T11:56:25.997Z,1.00
2018-10-11T11:58:54.103Z,1.00
2018-10-11T12:01:22.199Z,1.00
2018-10-11T12:03:50.295Z,1.00
2018-10-11T12:06:18.391Z,1.00
2018-10-11T12:08:46.735Z,1.00
2018-10-11T12:11:14.871Z,1.00
2018-10-11T12:13:43.051Z,1.00
2018-10-11T12:16:11.168Z,1.00
2018-10-11T12:18:39.264Z,1.00
2018-10-11T12:21:07.385Z,1.00
2018-10-11T12:23:35.583Z,1.00
2018-10-11T12:26:03.686Z,1.00
2018-10-11T12:28:31.856Z,1.00
2018-10-11T12:30:59.935Z,1.00
2018-10-11T12:33:28.098Z,1.00
2018-10-11T12:35:56.245Z,1.00
2018-10-11T12:38:24.361Z,1.00
2018-10-11T12:40:52.550Z,1.00
2018-10-11T12:43:20.681Z,1.00
2018-10-11T12:45:48.775Z,1.00
2018-10-11T12:48:16.913Z,1.00
2018-10-11T12:50:45.038Z,1.00
2018-10-11T12:53:13.184Z,1.00
2018-10-11T12:55:41.320Z,1.00
2018-10-11T12:58:09.476Z,1.00
2018-10-11T13:00:37.648Z,1.00
2018-10-11T13:03:05.815Z,1.00
2018-10-11T13:05:33.914Z,1.00
2018-10-11T13:08:02.048Z,1.00
2018-10-11T13:10:30.203Z,1.00
2018-10-11T13:12:58.963Z,1.00
2018-10-11T13:15:26.497Z,1.00
2018-10-11T13:17:54.672Z,1.00
2018-10-11T13:20:22.760Z,1.00
2018-10-11T13:22:50.942Z,1.00
2018-10-11T13:25:19.060Z,1.00
2018-10-11T13:27:47.222Z,1.00
2018-10-11T13:30:15.357Z,1.00
2018-10-11T13:32:43.478Z,1.00
2018-10-11T13:35:11.730Z,1.00
2018-10-11T13:37:39.968Z,1.00
2018-10-11T13:40:08.233Z,1.00
2018-10-11T13:42:36.416Z,1.00
2018-10-11T13:45:04.841Z,1.00
2018-10-11T13:47:36.457Z,1.00
2018-10-11T13:50:01.249Z,1.00
2018-10-11T13:52:29.375Z,1.00
2018-10-11T13:54:58.058Z,1.00
2018-10-11T13:57:29.338Z,1.00
2018-10-11T13:59:54.303Z,1.00
2018-10-11T14:02:22.406Z,1.00
2018-10-11T14:04:50.590Z,1.00
2018-10-11T14:07:18.711Z,1.00
2018-10-11T14:09:46.829Z,1.00
2018-10-11T14:12:14.936Z,1.00
2018-10-11T14:14:43.036Z,1.00
2018-10-11T14:17:11.215Z,1.00
2018-10-11T14:19:39.332Z,1.00
2018-10-11T14:22:07.457Z,1.00
2018-10-11T14:24:35.572Z,1.00
2018-10-11T14:27:03.675Z,1.00
2018-10-11T14:29:31.810Z,1.00
2018-10-11T14:31:59.944Z,1.00
2018-10-11T14:34:28.076Z,1.00
2018-10-11T14:36:56.411Z,1.00
2018-10-11T14:39:24.440Z,1.00
2018-10-11T14:41:52.633Z,1.00
2018-10-11T14:44:20.724Z,1.00
2018-10-11T14:46:48.843Z,1.00
2018-10-11T14:49:16.932Z,1.00
2018-10-11T14:51:48.376Z,1.00
2018-10-11T14:54:13.326Z,1.00
2018-10-11T14:56:41.433Z,1.00
2018-10-11T14:59:09.549Z,1.00
2018-10-11T15:01:37.952Z,1.00
2018-10-11T15:04:06.112Z,1.00
2018-10-11T15:06:34.210Z,1.00
2018-10-11T15:09:02.386Z,1.00
2018-10-11T15:11:30.614Z,1.00
2018-10-11T15:13:59.179Z,1.00
2018-10-11T15:16:27.299Z,1.00
2018-10-11T15:18:55.416Z,1.00
2018-10-11T15:21:23.617Z,1.00
2018-10-11T15:23:51.765Z,1.00
2018-10-11T15:26:19.832Z,1.00
2018-10-11T15:28:48.027Z,1.00
2018-10-11T15:31:16.099Z,1.00
2018-10-11T15:33:44.195Z,1.00
2018-10-11T15:36:12.326Z,1.00
2018-10-11T15:38:40.416Z,1.00
2018-10-11T15:41:08.509Z,1.00
2018-10-11T15:43:36.596Z,1.00
2018-10-11T15:46:04.723Z,1.00
2018-10-11T15:48:32.840Z,1.00
2018-10-11T15:51:00.984Z,1.00
2018-10-11T15:53:29.139Z,1.00
2018-10-11T15:55:57.263Z,1.00
2018-10-11T15:58:25.390Z,1.00
2018-10-11T16:00:53.439Z,1.00
2018-10-11T16:03:21.567Z,1.00
2018-10-11T16:05:49.741Z,1.00
2018-10-11T16:08:17.877Z,1.00
2018-10-11T16:10:46.090Z,1.00
2018-10-11T16:13:14.207Z,1.00
2018-10-11T16:15:42.327Z,1.00
2018-10-11T16:18:10.408Z,1.00
2018-10-11T16:20:38.549Z,1.00
2018-10-11T16:23:06.738Z,1.00
2018-10-11T16:25:34.874Z,1.00
2018-10-11T16:28:02.975Z,1.00
2018-10-11T16:30:31.105Z,1.00
2018-10-11T16:32:59.209Z,1.00
2018-10-11T16:35:28.560Z,1.00
2018-10-11T16:37:56.683Z,1.00
2018-10-11T16:40:24.803Z,1.00
2018-10-11T16:42:52.943Z,1.00
2018-10-11T16:45:21.086Z,1.00
2018-10-11T16:47:49.224Z,1.00
2018-10-11T16:52:52.191Z,1.00
2018-10-11T16:55:20.347Z,1.00
2018-10-11T16:57:48.460Z,1.00
2018-10-11T17:00:16.543Z,1.00
2018-10-11T17:02:44.718Z,1.00
2018-10-11T17:05:12.804Z,1.00
2018-10-11T17:07:40.926Z,1.00
2018-10-11T17:10:09.020Z,1.00
2018-10-11T17:12:37.310Z,1.00
2018-10-11T17:15:05.655Z,1.00
2018-10-11T17:17:34.090Z,1.00
2018-10-11T17:20:02.220Z,1.00
2018-10-11T17:22:30.319Z,1.00
2018-10-11T17:24:58.405Z,1.00
2018-10-11T17:27:26.531Z,1.00
2018-10-11T17:29:54.620Z,1.00
2018-10-11T17:32:22.742Z,1.00
2018-10-11T17:34:50.892Z,1.00
2018-10-11T17:37:18.998Z,1.00
2018-10-11T17:39:47.115Z,1.00
2018-10-11T17:42:15.281Z,1.00
2018-10-11T17:44:43.302Z,1.00
2018-10-11T17:47:11.367Z,1.00
2018-10-11T17:49:39.445Z,1.00
2018-10-11T17:52:07.567Z,1.00
2018-10-11T17:54:35.647Z,1.50
2018-10-11T17:57:03.764Z,1.10
2018-10-11T17:59:31.872Z,1.40
2018-10-11T18:01:59.973Z,1.60
2018-10-11T18:04:28.077Z,1.70
2018-10-11T18:06:56.179Z,2.30
2018-10-11T18:09:24.263Z,2.90
2018-10-11T18:11:52.339Z,2.60
2018-10-11T18:14:20.432Z,2.70
2018-10-11T18:16:48.623Z,3.10
2018-10-11T18:19:16.882Z,3.00
2018-10-11T18:21:45.173Z,3.10
2018-10-11T18:24:13.225Z,3.20
2018-10-11T18:26:41.384Z,3.50
2018-10-11T18:29:09.645Z,3.70
2018-10-11T18:31:37.727Z,4.00
2018-10-11T18:34:06.043Z,4.30
2018-10-11T18:36:34.113Z,4.90
2018-10-11T18:39:02.187Z,5.40
2018-10-11T18:41:30.267Z,6.20
2018-10-11T18:43:58.616Z,6.80
2018-10-11T18:46:26.741Z,7.00
2018-10-11T18:48:54.863Z,7.60
2018-10-11T18:51:22.943Z,8.00
2018-10-11T18:53:51.055Z,8.00
2018-10-11T18:56:19.163Z,9.40
2018-10-11T18:58:47.314Z,9.50
2018-10-11T19:01:15.423Z,8.60
2018-10-11T19:03:43.930Z,7.80
2018-10-11T19:06:12.358Z,8.30
2018-10-11T19:08:40.472Z,7.60
2018-10-11T19:11:08.677Z,7.40
2018-10-11T19:13:36.759Z,7.40
2018-10-11T19:16:04.942Z,7.30
2018-10-11T19:18:33.055Z,7.40
2018-10-11T19:21:01.403Z,7.40
2018-10-11T19:23:30.223Z,7.20
2018-10-11T19:25:58.390Z,7.20
2018-10-11T19:28:26.596Z,7.20
2018-10-11T19:30:56.284Z,7.60
2018-10-11T19:33:24.556Z,7.50
2018-10-11T19:35:53.103Z,7.80
2018-10-11T19:38:21.217Z,7.60
2018-10-11T19:40:49.429Z,7.70
2018-10-11T19:43:17.690Z,7.80
2018-10-11T19:45:48.084Z,8.00
2018-10-11T19:48:16.318Z,8.00
2018-10-11T19:50:47.058Z,8.00
2018-10-11T19:53:15.219Z,8.30
2018-10-11T19:55:44.564Z,8.30
2018-10-11T19:58:12.696Z,8.30
2018-10-11T20:00:40.836Z,8.50
2018-10-11T20:03:09.764Z,8.40
2018-10-11T20:05:37.908Z,8.50
2018-10-11T20:08:06.160Z,8.50
2018-10-11T20:10:34.188Z,8.70
2018-10-11T20:13:04.031Z,8.70
2018-10-11T20:15:32.245Z,8.80
2018-10-11T20:18:03.901Z,9.00
2018-10-11T20:20:28.620Z,9.10
2018-10-11T20:22:56.828Z,9.00
2018-10-11T20:25:24.923Z,9.10
2018-10-11T20:27:54.264Z,9.00
2018-10-11T20:30:24.828Z,9.30
2018-10-11T20:32:54.059Z,9.30
2018-10-11T20:35:22.631Z,9.50
2018-10-11T20:37:50.728Z,9.60
2018-10-11T20:40:19.648Z,9.80
2018-10-11T20:42:47.775Z,10.00
2018-10-11T20:45:16.461Z,10.70
2018-10-11T20:47:45.828Z,10.30
2018-10-11T20:50:13.915Z,10.50
2018-10-11T20:52:45.044Z,10.70
2018-10-11T20:55:13.243Z,10.80
2018-10-11T20:57:41.319Z,10.70
2018-10-11T21:00:09.820Z,10.80
2018-10-11T21:02:41.739Z,10.70
2018-10-11T21:05:09.823Z,10.80
2018-10-11T21:07:37.923Z,10.80
2018-10-11T21:10:06.447Z,10.70
2018-10-11T21:12:34.604Z,10.70
2018-10-11T21:15:02.740Z,10.60
2018-10-11T21:17:30.918Z,10.60
2018-10-11T21:19:59.169Z,10.50
2018-10-11T21:22:27.256Z,10.40
2018-10-11T21:24:55.397Z,10.40
2018-10-11T21:27:23.504Z,10.50
2018-10-11T21:29:51.616Z,10.60
2018-10-11T21:32:19.968Z,10.90
2018-10-11T21:34:48.067Z,10.90
2018-10-11T21:37:16.205Z,10.90
2018-10-11T21:39:44.310Z,10.90
2018-10-11T21:42:12.427Z,11.20
2018-10-11T21:44:40.507Z,11.20
2018-10-11T21:47:08.723Z,11.20
2018-10-11T21:49:36.835Z,11.30
2018-10-11T21:52:05.045Z,11.10
2018-10-11T21:54:33.172Z,11.10
2018-10-11T21:57:01.434Z,11.20
2018-10-11T21:59:29.605Z,11.40
2018-10-11T22:01:57.684Z,11.50
2018-10-11T22:04:25.819Z,11.60
2018-10-11T22:06:53.923Z,11.70
2018-10-11T22:09:22.048Z,11.80
2018-10-11T22:11:50.120Z,11.90
2018-10-11T22:14:18.208Z,12.30
2018-10-11T22:16:46.336Z,12.30
2018-10-11T22:19:14.513Z,13.10
2018-10-11T22:21:42.621Z,12.90
2018-10-11T22:24:10.783Z,13.10
2018-10-11T22:26:38.979Z,13.40
2018-10-11T22:29:07.410Z,13.40
2018-10-11T22:31:35.514Z,13.60
2018-10-11T22:34:04.307Z,13.60
2018-10-11T22:36:32.481Z,14.10
2018-10-11T22:39:00.628Z,13.90
2018-10-11T22:41:28.740Z,14.10
2018-10-11T22:43:56.832Z,14.30
2018-10-11T22:46:25.053Z,14.50
2018-10-11T22:48:53.277Z,15.20
2018-10-11T22:51:21.375Z,14.70
2018-10-11T22:53:49.507Z,14.90
2018-10-11T22:56:20.751Z,15.00
2018-10-11T22:58:49.866Z,15.00
2018-10-11T23:01:17.941Z,15.10
2018-10-11T23:03:46.084Z,15.00
2018-10-11T23:06:14.208Z,15.20
2018-10-11T23:08:42.336Z,15.40
2018-10-11T23:11:10.605Z,15.40
2018-10-11T23:13:39.404Z,15.90
2018-10-11T23:16:07.605Z,15.50
2018-10-11T23:18:35.700Z,15.50
2018-10-11T23:21:03.879Z,15.40
2018-10-11T23:23:31.972Z,15.50
2018-10-11T23:26:00.088Z,15.60
2018-10-11T23:28:28.192Z,15.70
2018-10-11T23:30:56.304Z,15.90
2018-10-11T23:33:24.643Z,16.30
2018-10-11T23:35:52.757Z,16.30
2018-10-11T23:38:20.843Z,16.50
2018-10-11T23:40:48.968Z,17.10
2018-10-11T23:43:17.043Z,16.70
2018-10-11T23:45:45.138Z,16.60
2018-10-11T23:48:13.228Z,16.70
2018-10-11T23:50:41.327Z,16.90
2018-10-11T23:53:09.442Z,16.90
2018-10-11T23:55:37.560Z,17.00
2018-10-11T23:58:05.728Z,17.20
